createdAt,value
2019-05-14T00:02:13.001Z,60.00
2019-05-14T00:04:42.528Z,60.22
2019-05-14T00:07:11.606Z,60.51
2019-05-14T00:09:41.418Z,60.72
2019-05-14T00:12:11.103Z,61.05
2019-05-14T00:14:43.529Z,61.20
2019-05-14T00:17:11.318Z,61.22
2019-05-14T00:19:38.467Z,61.93
2019-05-14T00:22:07.483Z,62.11
2019-05-14T00:24:36.453Z,62.32
2019-05-14T00:27:05.408Z,62.50
2019-05-14T00:29:35.195Z,62.76
2019-05-14T00:32:04.087Z,62.55
2019-05-14T00:34:33.099Z,63.13
2019-05-14T00:37:01.974Z,63.50
2019-05-14T00:39:32.073Z,63.69
2019-05-14T00:42:01.802Z,63.91
2019-05-14T00:44:28.788Z,64.05
2019-05-14T00:46:57.694Z,63.93
2019-05-14T00:49:26.672Z,64.26
2019-05-14T00:51:55.576Z,64.41
2019-05-14T00:54:24.500Z,64.59
2019-05-14T00:56:53.402Z,64.58
2019-05-14T00:59:22.348Z,65.04
2019-05-14T01:01:51.766Z,64.96
2019-05-14T01:04:22.206Z,64.65
2019-05-14T01:06:51.165Z,65.34
2019-05-14T01:09:18.117Z,65.61
2019-05-14T01:11:47.025Z,65.52
2019-05-14T01:14:16.005Z,65.64
2019-05-14T01:16:44.888Z,65.70
2019-05-14T01:19:13.783Z,65.80
2019-05-14T01:21:42.782Z,66.31
2019-05-14T01:24:12.723Z,66.57
2019-05-14T01:26:41.645Z,66.39
2019-05-14T01:29:11.941Z,66.20
2019-05-14T01:31:38.978Z,66.56
2019-05-14T01:34:07.937Z,66.02
2019-05-14T01:36:36.954Z,66.45
2019-05-14T01:39:06.721Z,66.38
2019-05-14T01:41:35.663Z,66.79
2019-05-14T01:44:04.643Z,67.12
2019-05-14T01:46:33.624Z,67.60
2019-05-14T01:49:02.639Z,67.64
2019-05-14T01:51:31.875Z,67.59
2019-05-14T01:54:01.415Z,67.36
2019-05-14T01:56:31.729Z,67.41
2019-05-14T01:58:58.717Z,67.55
2019-05-14T02:01:27.643Z,67.23
2019-05-14T02:03:56.602Z,67.45
2019-05-14T02:06:25.558Z,67.20
2019-05-14T02:08:54.595Z,68.01
2019-05-14T02:11:23.504Z,68.08
2019-05-14T02:13:52.408Z,68.02
2019-05-14T02:16:21.971Z,68.47
2019-05-14T02:18:52.226Z,68.53
2019-05-14T02:21:19.254Z,68.78
2019-05-14T02:23:48.212Z,68.53
2019-05-14T02:26:17.130Z,69.14
2019-05-14T02:28:46.135Z,69.43
2019-05-14T02:31:15.079Z,69.04
2019-05-14T02:33:44.001Z,69.21
2019-05-14T02:36:12.943Z,69.27
2019-05-14T02:38:41.884Z,69.18
2019-05-14T02:41:10.817Z,69.54
2019-05-14T02:43:40.844Z,69.44
2019-05-14T02:46:13.130Z,69.33
2019-05-14T02:48:40.126Z,69.72
2019-05-14T02:51:10.213Z,70.00
2019-05-14T02:53:35.530Z,70.06
2019-05-14T02:56:04.492Z,70.16
2019-05-14T02:58:33.424Z,70.30
2019-05-14T03:01:02.334Z,70.37
2019-05-14T03:03:31.302Z,70.12
2019-05-14T03:06:00.756Z,69.97
2019-05-14T03:08:30.508Z,69.82
2019-05-14T03:11:00.213Z,70.17
2019-05-14T03:13:29.607Z,70.19
2019-05-14T03:15:59.052Z,70.11
2019-05-14T03:18:25.013Z,70.10
2019-05-14T03:20:53.959Z,69.81
2019-05-14T03:23:23.448Z,69.87
2019-05-14T03:25:51.881Z,70.90
2019-05-14T03:28:20.733Z,70.84
2019-05-14T03:30:52.114Z,71.40
2019-05-14T03:33:22.201Z,71.40
2019-05-14T03:35:56.031Z,71.43
2019-05-14T03:38:19.518Z,70.40
2019-05-14T03:40:45.480Z,71.31
2019-05-14T03:43:14.423Z,70.95
2019-05-14T03:45:43.422Z,71.26
2019-05-14T03:48:12.346Z,71.40
2019-05-14T03:50:41.340Z,71.32
2019-05-14T03:53:10.390Z,71.42
2019-05-14T03:55:40.339Z,71.53
2019-05-14T03:58:09.951Z,71.72
2019-05-14T04:00:49.949Z,71.56
2019-05-14T04:03:19.803Z,71.85
2019-05-14T04:05:49.119Z,71.56
2019-05-14T04:08:15.097Z,71.93
2019-05-14T04:10:50.605Z,71.79
2019-05-14T04:13:13.382Z,71.64
2019-05-14T04:15:42.320Z,71.73
2019-05-14T04:18:11.791Z,71.67
2019-05-14T04:20:40.677Z,71.75
2019-05-14T04:23:09.674Z,72.03
2019-05-14T04:25:39.136Z,71.62
2019-05-14T04:28:09.856Z,72.43
2019-05-14T04:30:39.789Z,72.30
2019-05-14T04:33:05.686Z,72.41
2019-05-14T04:35:34.647Z,72.25
2019-05-14T04:38:03.619Z,71.70
2019-05-14T04:40:32.536Z,71.22
2019-05-14T04:43:01.468Z,71.13
2019-05-14T04:45:30.443Z,71.08
2019-05-14T04:48:00.310Z,70.43
2019-05-14T04:50:29.689Z,70.58
2019-05-14T04:52:59.897Z,70.16
2019-05-14T04:55:29.480Z,69.92
2019-05-14T04:57:55.154Z,69.67
2019-05-14T05:00:24.102Z,69.76
2019-05-14T05:02:53.129Z,69.79
2019-05-14T05:05:22.049Z,69.88
2019-05-14T05:07:51.010Z,69.83
2019-05-14T05:10:19.988Z,69.83
2019-05-14T05:12:49.459Z,70.02
2019-05-14T05:15:19.811Z,69.98
2019-05-14T05:17:51.710Z,70.48
2019-05-14T05:20:15.756Z,70.77
2019-05-14T05:22:44.647Z,71.04
2019-05-14T05:25:13.587Z,71.59
2019-05-14T05:27:42.488Z,71.28
2019-05-14T05:30:11.453Z,71.99
2019-05-14T05:32:40.362Z,72.05
2019-05-14T05:35:09.696Z,71.82
2019-05-14T05:37:38.583Z,71.91
2019-05-14T05:40:09.142Z,71.58
2019-05-14T05:42:38.610Z,71.05
2019-05-14T05:45:08.004Z,70.49
2019-05-14T05:47:34.684Z,70.00
2019-05-14T05:50:03.713Z,69.38
2019-05-14T05:52:32.639Z,68.58
2019-05-14T05:55:01.563Z,67.70
2019-05-14T05:57:30.488Z,66.22
2019-05-14T05:59:59.375Z,65.07
2019-05-14T06:02:29.077Z,63.80
2019-05-14T06:04:58.618Z,63.27
2019-05-14T06:07:28.689Z,62.18
2019-05-14T06:09:55.231Z,58.59
2019-05-14T06:12:24.236Z,52.60
2019-05-14T06:14:53.071Z,47.00
2019-05-14T06:17:22.018Z,42.31
2019-05-14T06:19:50.930Z,39.32
2019-05-14T06:22:19.903Z,36.88
2019-05-14T06:24:48.889Z,35.42
2019-05-14T06:27:18.281Z,33.48
2019-05-14T06:29:48.698Z,32.04
2019-05-14T06:32:15.690Z,30.71
2019-05-14T06:34:44.597Z,29.32
2019-05-14T06:37:13.426Z,30.05
2019-05-14T06:39:42.363Z,30.37
2019-05-14T06:42:11.248Z,29.79
2019-05-14T06:44:40.215Z,30.35
2019-05-14T06:47:09.481Z,30.52
2019-05-14T06:49:38.628Z,30.28
2019-05-14T06:52:08.814Z,31.35
2019-05-14T06:54:38.662Z,31.66
2019-05-14T06:57:08.647Z,30.41
2019-05-14T06:59:34.922Z,29.13
2019-05-14T07:02:03.856Z,28.35
2019-05-14T07:04:32.789Z,28.64
2019-05-14T07:07:01.722Z,28.45
2019-05-14T07:09:30.666Z,29.50
2019-05-14T07:11:59.662Z,30.88
2019-05-14T07:14:28.551Z,30.72
2019-05-14T07:16:58.874Z,31.69
2019-05-14T07:19:29.131Z,33.48
2019-05-14T07:21:55.284Z,33.65
2019-05-14T07:24:24.163Z,32.20
2019-05-14T07:26:53.067Z,29.18
2019-05-14T07:29:21.996Z,30.13
2019-05-14T07:31:50.989Z,29.82
2019-05-14T07:34:19.995Z,30.96
2019-05-14T07:36:49.208Z,30.87
2019-05-14T07:39:18.674Z,28.98
2019-05-14T07:41:48.327Z,27.93
2019-05-14T07:44:15.603Z,26.10
2019-05-14T07:46:44.470Z,24.50
2019-05-14T07:49:13.382Z,22.45
2019-05-14T07:51:42.413Z,22.66
2019-05-14T07:54:11.312Z,23.01
2019-05-14T07:56:50.965Z,22.00
2019-05-14T07:59:29.795Z,21.67
2019-05-14T08:01:58.938Z,21.11
2019-05-14T08:04:44.473Z,20.99
2019-05-14T08:10:21.222Z,19.99
2019-05-14T08:12:55.252Z,18.85
2019-05-14T08:15:24.677Z,17.99
2019-05-14T08:18:03.057Z,17.89
2019-05-14T08:20:52.785Z,17.69
2019-05-14T08:23:28.353Z,15.88
2019-05-14T08:26:03.673Z,15.66
2019-05-14T08:28:32.842Z,15.88
2019-05-14T08:31:32.570Z,16.06
2019-05-14T08:33:48.886Z,15.62
2019-05-14T08:36:20.088Z,15.71
2019-05-14T08:39:00.281Z,15.66
2019-05-14T08:41:42.059Z,15.91
2019-05-14T08:44:32.223Z,16.15
2019-05-14T08:47:09.504Z,16.26
2019-05-14T08:49:46.345Z,15.74
2019-05-14T08:52:22.988Z,15.57
2019-05-14T08:55:07.247Z,15.00
2019-05-14T08:57:29.128Z,14.41
2019-05-14T09:00:03.508Z,15.38
2019-05-14T09:02:39.320Z,13.91
2019-05-14T09:05:29.924Z,14.22
2019-05-14T09:08:30.764Z,14.84
2019-05-14T09:11:10.458Z,15.63
2019-05-14T09:13:40.323Z,15.96
2019-05-14T09:16:38.288Z,16.06
2019-05-14T09:18:53.582Z,16.74
2019-05-14T09:22:20.448Z,17.63
2019-05-14T09:24:30.262Z,17.68
2019-05-14T09:27:19.276Z,17.37
2019-05-14T09:30:12.290Z,19.15
2019-05-14T09:32:44.324Z,20.57
2019-05-14T09:35:13.316Z,22.39
2019-05-14T09:37:50.945Z,21.98
2019-05-14T09:40:20.122Z,22.35
2019-05-14T09:42:50.034Z,22.46
2019-05-14T09:45:20.789Z,20.59
2019-05-14T09:48:24.303Z,20.10
2019-05-14T09:50:55.549Z,20.28
2019-05-14T09:53:52.383Z,19.52
2019-05-14T09:56:39.655Z,18.78
2019-05-14T09:59:09.184Z,19.89
2019-05-14T10:01:42.736Z,19.51
2019-05-14T10:04:14.742Z,19.01
2019-05-14T10:06:45.547Z,18.24
2019-05-14T10:09:22.772Z,18.58
2019-05-14T10:12:08.881Z,18.98
2019-05-14T10:17:30.184Z,20.74
2019-05-14T10:22:55.008Z,19.03
2019-05-14T10:25:28.673Z,19.36
2019-05-14T10:28:01.834Z,18.79
2019-05-14T10:30:31.210Z,18.51
2019-05-14T10:33:09.460Z,16.87
2019-05-14T10:35:34.052Z,16.22
2019-05-14T10:38:08.971Z,16.38
2019-05-14T10:40:44.144Z,16.81
2019-05-14T10:43:28.812Z,17.23
2019-05-14T10:46:05.692Z,17.55
2019-05-14T10:48:52.498Z,17.85
2019-05-14T10:51:28.397Z,16.79
2019-05-14T10:54:20.520Z,17.56
2019-05-14T10:56:59.635Z,19.02
2019-05-14T10:59:59.160Z,19.21
2019-05-14T11:02:39.553Z,19.00
2019-05-14T11:05:19.601Z,19.45
2019-05-14T11:08:18.707Z,18.40
2019-05-14T11:11:33.223Z,16.78
2019-05-14T11:14:31.682Z,18.06
2019-05-14T11:17:49.443Z,17.10
2019-05-14T11:20:36.162Z,18.05
2019-05-14T11:23:21.728Z,18.32
2019-05-14T11:25:59.770Z,17.24
2019-05-14T11:28:51.067Z,17.36
2019-05-14T11:31:22.706Z,17.14
2019-05-14T11:33:58.865Z,18.00
2019-05-14T11:39:29.168Z,18.76
2019-05-14T11:42:12.214Z,18.85
2019-05-14T11:44:49.655Z,19.52
2019-05-14T11:47:30.219Z,18.62
2019-05-14T11:50:11.837Z,19.74
2019-05-14T11:53:20.212Z,19.32
2019-05-14T11:55:50.221Z,19.84
2019-05-14T11:58:21.810Z,19.81
2019-05-14T12:00:59.965Z,20.05
2019-05-14T12:03:31.978Z,21.87
2019-05-14T12:06:30.522Z,21.90
2019-05-14T12:09:13.465Z,20.82
2019-05-14T12:11:47.105Z,21.64
2019-05-14T12:14:40.123Z,23.53
2019-05-14T12:17:21.366Z,22.39
2019-05-14T12:19:52.905Z,22.44
2019-05-14T12:22:24.494Z,23.40
2019-05-14T12:24:53.563Z,22.79
2019-05-14T12:27:25.441Z,23.35
2019-05-14T12:30:09.507Z,23.74
2019-05-14T12:32:58.979Z,24.65
2019-05-14T12:35:34.953Z,25.32
2019-05-14T12:38:18.629Z,25.96
2019-05-14T12:40:50.466Z,25.07
2019-05-14T12:43:43.937Z,25.05
2019-05-14T12:46:20.155Z,25.00
2019-05-14T12:51:52.416Z,24.92
2019-05-14T12:54:29.832Z,25.34
2019-05-14T12:57:26.216Z,25.91
2019-05-14T12:59:55.427Z,26.37
2019-05-14T13:02:29.294Z,27.24
2019-05-14T13:05:00.260Z,25.46
2019-05-14T13:07:41.771Z,25.12
2019-05-14T13:10:18.911Z,25.42
2019-05-14T13:12:58.871Z,24.87
2019-05-14T13:15:39.387Z,25.42
2019-05-14T13:18:38.672Z,25.73
2019-05-14T13:21:21.500Z,25.44
2019-05-14T13:24:18.060Z,25.14
2019-05-14T13:26:54.981Z,24.51
2019-05-14T13:29:36.766Z,25.27
2019-05-14T13:32:19.265Z,25.66
2019-05-14T13:35:00.453Z,25.77
2019-05-14T13:37:55.156Z,25.82
2019-05-14T13:40:28.247Z,25.71
2019-05-14T13:42:55.492Z,25.55
2019-05-14T13:46:01.786Z,25.72
2019-05-14T13:48:32.236Z,24.77
2019-05-14T13:51:05.414Z,25.44
2019-05-14T13:53:42.162Z,24.76
2019-05-14T13:56:18.951Z,25.00
2019-05-14T13:58:49.770Z,25.58
2019-05-14T14:01:22.648Z,25.09
2019-05-14T14:04:10.086Z,25.29
2019-05-14T14:06:33.714Z,24.66
2019-05-14T14:09:31.475Z,25.26
2019-05-14T14:12:25.306Z,25.69
2019-05-14T14:14:58.593Z,25.42
2019-05-14T14:17:25.728Z,26.05
2019-05-14T14:20:05.663Z,26.30
2019-05-14T14:22:40.576Z,25.94
2019-05-14T14:25:10.027Z,25.43
2019-05-14T14:28:00.361Z,26.75
2019-05-14T14:33:38.937Z,26.34
2019-05-14T14:39:38.592Z,25.37
2019-05-14T14:42:06.552Z,24.78
2019-05-14T14:44:39.429Z,25.21
2019-05-14T14:47:19.089Z,25.57
2019-05-14T14:49:51.774Z,25.79
2019-05-14T14:52:19.696Z,24.98
2019-05-14T14:54:45.191Z,24.75
2019-05-14T14:57:14.107Z,24.48
2019-05-14T14:59:43.091Z,24.50
2019-05-14T15:02:12.012Z,25.59
2019-05-14T15:04:40.935Z,25.96
2019-05-14T15:07:10.053Z,25.51
2019-05-14T15:09:40.535Z,26.02
2019-05-14T15:12:09.085Z,26.29
2019-05-14T15:14:39.558Z,26.55
2019-05-14T15:17:05.904Z,27.10
2019-05-14T15:19:34.785Z,26.91
2019-05-14T15:22:03.671Z,26.01
2019-05-14T15:24:32.604Z,26.08
2019-05-14T15:27:08.282Z,26.96
2019-05-14T15:29:30.591Z,25.80
2019-05-14T15:31:59.477Z,25.49
2019-05-14T15:34:29.714Z,26.07
2019-05-14T15:36:59.873Z,25.57
2019-05-14T15:39:26.211Z,25.51
2019-05-14T15:41:55.184Z,25.76
2019-05-14T15:44:24.050Z,25.54
2019-05-14T15:46:52.954Z,25.23
2019-05-14T15:49:21.960Z,26.33
2019-05-14T15:51:50.813Z,26.28
2019-05-14T15:54:38.193Z,26.22
2019-05-14T15:56:49.365Z,25.76
2019-05-14T15:59:20.533Z,25.49
2019-05-14T16:01:49.445Z,26.03
2019-05-14T16:04:20.859Z,26.91
2019-05-14T16:06:48.852Z,26.78
2019-05-14T16:09:19.184Z,25.85
2019-05-14T16:11:45.138Z,26.30
2019-05-14T16:14:14.057Z,26.37
2019-05-14T16:16:42.970Z,26.32
2019-05-14T16:19:11.852Z,26.77
2019-05-14T16:21:40.758Z,25.90
2019-05-14T16:24:09.766Z,26.67
2019-05-14T16:26:38.686Z,27.01
2019-05-14T16:29:08.898Z,26.70
2019-05-14T16:31:42.863Z,26.42
2019-05-14T16:34:05.800Z,26.19
2019-05-14T16:36:34.682Z,26.53
2019-05-14T16:39:03.689Z,26.69
2019-05-14T16:41:32.591Z,26.53
2019-05-14T16:44:01.681Z,26.63
2019-05-14T16:46:30.655Z,27.68
2019-05-14T16:48:59.538Z,26.97
2019-05-14T16:51:28.458Z,26.70
2019-05-14T16:53:59.017Z,26.73
2019-05-14T16:56:28.309Z,27.23
2019-05-14T16:58:58.308Z,27.19
2019-05-14T17:01:30.645Z,27.45
2019-05-14T17:03:55.582Z,27.33
2019-05-14T17:06:24.516Z,28.06
2019-05-14T17:08:53.496Z,27.85
2019-05-14T17:11:22.323Z,26.95
2019-05-14T17:13:51.241Z,27.27
2019-05-14T17:16:20.190Z,27.99
2019-05-14T17:18:49.103Z,27.99
2019-05-14T17:21:18.389Z,27.81
2019-05-14T17:23:48.905Z,28.78
2019-05-14T17:26:15.861Z,28.69
2019-05-14T17:28:44.842Z,28.40
2019-05-14T17:31:13.788Z,28.29
2019-05-14T17:33:42.739Z,29.01
2019-05-14T17:36:11.626Z,28.92
2019-05-14T17:38:40.625Z,29.09
2019-05-14T17:41:09.717Z,29.70
2019-05-14T17:43:39.298Z,28.76
2019-05-14T17:46:09.683Z,28.85
2019-05-14T17:48:38.946Z,28.94
2019-05-14T17:51:05.705Z,30.00
2019-05-14T17:53:34.566Z,29.65
2019-05-14T17:56:03.593Z,29.45
2019-05-14T17:58:32.454Z,29.20
2019-05-14T18:01:01.450Z,30.10
2019-05-14T18:03:30.339Z,29.28
2019-05-14T18:05:59.276Z,29.03
2019-05-14T18:08:30.033Z,29.79
2019-05-14T18:10:59.237Z,29.79
2019-05-14T18:13:26.047Z,29.66
2019-05-14T18:15:54.942Z,29.46
2019-05-14T18:18:23.836Z,29.60
2019-05-14T18:20:52.778Z,29.74
2019-05-14T18:23:21.718Z,30.12
2019-05-14T18:26:03.964Z,30.49
2019-05-14T18:28:19.561Z,30.25
2019-05-14T18:30:49.094Z,30.40
2019-05-14T18:33:18.770Z,30.87
2019-05-14T18:35:47.599Z,30.84
2019-05-14T18:38:15.277Z,31.23
2019-05-14T18:40:44.223Z,31.90
2019-05-14T18:43:13.123Z,32.07
2019-05-14T18:45:42.026Z,31.86
2019-05-14T18:48:11.054Z,31.93
2019-05-14T18:50:39.972Z,32.31
2019-05-14T18:53:12.772Z,32.56
2019-05-14T18:55:38.599Z,33.11
2019-05-14T18:58:08.580Z,33.35
2019-05-14T19:00:35.749Z,33.14
2019-05-14T19:03:04.721Z,32.83
2019-05-14T19:05:33.636Z,33.23
2019-05-14T19:08:02.546Z,33.32
2019-05-14T19:10:31.433Z,33.80
2019-05-14T19:13:00.358Z,34.17
2019-05-14T19:15:29.234Z,34.32
2019-05-14T19:18:29.386Z,34.77
2019-05-14T19:21:08.746Z,35.05
2019-05-14T19:23:33.801Z,35.33
2019-05-14T19:26:02.720Z,35.93
2019-05-14T19:28:31.601Z,36.30
2019-05-14T19:31:00.527Z,36.72
2019-05-14T19:33:29.430Z,36.99
2019-05-14T19:35:58.370Z,37.45
2019-05-14T19:38:27.268Z,37.46
2019-05-14T19:40:56.217Z,37.62
2019-05-14T19:43:25.171Z,37.62
2019-05-14T19:45:54.247Z,37.79
2019-05-14T19:48:23.144Z,37.99
2019-05-14T19:50:52.053Z,37.95
2019-05-14T19:53:20.974Z,38.52
2019-05-14T19:55:49.948Z,39.38
2019-05-14T19:58:20.257Z,39.68
2019-05-14T20:00:48.905Z,40.22
2019-05-14T20:03:18.790Z,40.54
2019-05-14T20:05:45.813Z,40.53
2019-05-14T20:08:14.752Z,40.75
2019-05-14T20:10:43.724Z,40.57
2019-05-14T20:13:12.578Z,40.37
2019-05-14T20:15:41.494Z,40.87
2019-05-14T20:18:10.456Z,41.06
2019-05-14T20:20:39.405Z,41.67
2019-05-14T20:23:08.344Z,42.47
2019-05-14T20:25:38.734Z,43.11
2019-05-14T20:28:18.988Z,44.09
2019-05-14T20:30:48.977Z,44.66
2019-05-14T20:33:15.387Z,45.06
2019-05-14T20:35:44.483Z,45.42
2019-05-14T20:38:13.385Z,46.05
2019-05-14T20:40:42.325Z,46.33
2019-05-14T20:43:11.218Z,46.91
2019-05-14T20:45:40.167Z,47.42
2019-05-14T20:48:09.172Z,47.57
2019-05-14T20:50:38.484Z,48.20
2019-05-14T20:53:08.448Z,48.33
2019-05-14T20:55:36.021Z,48.68
2019-05-14T20:58:04.945Z,48.78
2019-05-14T21:00:34.109Z,49.09
2019-05-14T21:03:03.259Z,49.54
2019-05-14T21:05:32.132Z,49.42
2019-05-14T21:08:01.100Z,50.05
2019-05-14T21:10:30.121Z,50.26
2019-05-14T21:12:59.061Z,50.45
2019-05-14T21:15:28.733Z,50.88
2019-05-14T21:17:59.288Z,51.24
2019-05-14T21:20:28.036Z,51.21
2019-05-14T21:22:54.918Z,51.37
2019-05-14T21:25:23.889Z,51.67
2019-05-14T21:27:52.846Z,52.20
2019-05-14T21:30:22.074Z,52.19
2019-05-14T21:32:50.784Z,52.47
2019-05-14T21:35:21.125Z,52.50
2019-05-14T21:37:51.474Z,52.96
2019-05-14T21:40:18.652Z,52.99
2019-05-14T21:42:48.708Z,53.26
2019-05-14T21:45:15.607Z,53.54
2019-05-14T21:47:44.592Z,53.52
2019-05-14T21:50:13.555Z,53.81
2019-05-14T21:52:42.643Z,54.11
2019-05-14T21:55:11.520Z,54.10
2019-05-14T21:57:53.446Z,54.11
2019-05-14T22:00:11.987Z,54.41
2019-05-14T22:02:40.949Z,54.51
2019-05-14T22:05:09.935Z,54.48
2019-05-14T22:07:39.054Z,54.54
2019-05-14T22:10:07.989Z,54.79
2019-05-14T22:12:39.255Z,55.07
2019-05-14T22:15:08.412Z,55.12
2019-05-14T22:17:35.012Z,55.16
2019-05-14T22:20:04.433Z,55.11
2019-05-14T22:22:33.434Z,55.57
2019-05-14T22:25:02.457Z,55.64
2019-05-14T22:27:31.390Z,55.70
2019-05-14T22:30:00.332Z,55.56
2019-05-14T22:32:29.327Z,55.92
2019-05-14T22:34:58.648Z,55.99
2019-05-14T22:37:28.029Z,56.07
2019-05-14T22:39:56.254Z,55.77
2019-05-14T22:42:25.267Z,55.95
2019-05-14T22:44:54.245Z,56.31
2019-05-14T22:47:23.238Z,56.50
2019-05-14T22:49:52.243Z,56.50
2019-05-14T22:52:21.263Z,56.62
2019-05-14T22:54:50.244Z,56.72
2019-05-14T22:57:19.157Z,56.79
2019-05-14T22:59:48.663Z,56.43
2019-05-14T23:02:19.381Z,57.09
2019-05-14T23:04:46.135Z,56.93
2019-05-14T23:07:15.094Z,56.79
2019-05-14T23:09:44.124Z,56.86
2019-05-14T23:12:13.083Z,57.12
2019-05-14T23:14:42.076Z,57.14
2019-05-14T23:17:11.024Z,57.46
2019-05-14T23:19:40.068Z,57.38
2019-05-14T23:22:08.987Z,57.54
2019-05-14T23:24:39.122Z,57.53
2019-05-14T23:27:08.263Z,57.49
2019-05-14T23:29:38.344Z,57.20
2019-05-14T23:32:04.928Z,57.17
2019-05-14T23:34:33.893Z,57.03
2019-05-14T23:37:02.935Z,57.23
2019-05-14T23:39:31.839Z,57.22
2019-05-14T23:42:00.824Z,57.30
2019-05-14T23:44:29.803Z,57.62
2019-05-14T23:46:58.966Z,57.40
2019-05-14T23:49:27.792Z,57.55
2019-05-14T23:51:56.800Z,57.34
2019-05-14T23:54:25.743Z,57.18
2019-05-14T23:56:54.688Z,57.16
2019-05-14T23:59:23.743Z,57.30
